createdAt,value
2022-12-27T00:00:17.909Z,1013.60
2022-12-27T00:01:17.873Z,1013.63
2022-12-27T00:02:17.962Z,1013.63
2022-12-27T00:03:17.927Z,1013.64
2022-12-27T00:04:17.837Z,1013.63
2022-12-27T00:05:17.835Z,1013.63
2022-12-27T00:06:17.810Z,1013.63
2022-12-27T00:07:17.836Z,1013.56
2022-12-27T00:08:17.786Z,1013.59
2022-12-27T00:09:17.776Z,1013.60
2022-12-27T00:10:17.771Z,1013.54
2022-12-27T00:11:17.755Z,1013.59
2022-12-27T00:12:17.745Z,1013.56
2022-12-27T00:13:17.742Z,1013.57
2022-12-27T00:14:17.728Z,1013.58
2022-12-27T00:15:17.720Z,1013.51
2022-12-27T00:16:17.815Z,1013.57
2022-12-27T00:17:17.718Z,1013.60
2022-12-27T00:18:17.681Z,1013.54
2022-12-27T00:19:17.666Z,1013.57
2022-12-27T00:20:17.680Z,1013.61
2022-12-27T00:21:17.692Z,1013.65
2022-12-27T00:22:17.653Z,1013.68
2022-12-27T00:23:17.642Z,1013.62
2022-12-27T00:24:17.605Z,1013.51
2022-12-27T00:25:17.606Z,1013.61
2022-12-27T00:26:17.603Z,1013.66
2022-12-27T00:27:17.579Z,1013.59
2022-12-27T00:28:17.568Z,1013.57
2022-12-27T00:29:17.564Z,1013.61
2022-12-27T00:30:17.551Z,1013.62
2022-12-27T00:31:17.567Z,1013.68
2022-12-27T00:32:17.555Z,1013.67
2022-12-27T00:33:17.520Z,1013.66
2022-12-27T00:34:17.513Z,1013.62
2022-12-27T00:35:17.503Z,1013.70
2022-12-27T00:36:17.484Z,1013.66
2022-12-27T00:37:17.474Z,1013.67
2022-12-27T00:38:17.459Z,1013.64
2022-12-27T00:39:17.469Z,1013.66
2022-12-27T00:40:17.448Z,1013.71
2022-12-27T00:41:17.448Z,1013.58
2022-12-27T00:42:17.414Z,1013.73
2022-12-27T00:43:17.427Z,1013.73
2022-12-27T00:44:17.391Z,1013.62
2022-12-27T00:45:17.395Z,1013.71
2022-12-27T00:46:17.392Z,1013.70
2022-12-27T00:47:17.375Z,1013.76
2022-12-27T00:48:17.370Z,1013.73
2022-12-27T00:49:17.342Z,1013.66
2022-12-27T00:50:17.329Z,1013.71
2022-12-27T00:51:17.334Z,1013.74
2022-12-27T00:52:17.312Z,1013.72
2022-12-27T00:53:17.299Z,1013.75
2022-12-27T00:54:17.284Z,1013.70
2022-12-27T00:55:17.284Z,1013.82
2022-12-27T00:56:17.272Z,1013.77
2022-12-27T00:57:17.282Z,1013.73
2022-12-27T00:58:17.255Z,1013.69
2022-12-27T00:59:17.245Z,1013.72
2022-12-27T01:00:17.218Z,1013.59
2022-12-27T01:01:17.318Z,1013.72
2022-12-27T01:02:17.265Z,1013.68
2022-12-27T01:03:17.217Z,1013.64
2022-12-27T01:04:17.205Z,1013.71
2022-12-27T01:05:17.186Z,1013.73
2022-12-27T01:06:17.161Z,1013.71
2022-12-27T01:07:17.144Z,1013.81
2022-12-27T01:08:17.138Z,1013.83
2022-12-27T01:09:17.127Z,1013.73
2022-12-27T01:10:17.115Z,1013.70
2022-12-27T01:11:17.097Z,1013.74
2022-12-27T01:12:17.119Z,1013.81
2022-12-27T01:13:17.081Z,1013.81
2022-12-27T01:14:17.077Z,1013.71
2022-12-27T01:15:17.057Z,1013.77
2022-12-27T01:16:17.105Z,1013.79
2022-12-27T01:17:17.034Z,1013.81
2022-12-27T01:18:17.033Z,1013.74
2022-12-27T01:19:17.022Z,1013.72
2022-12-27T01:20:17.032Z,1013.83
2022-12-27T01:21:16.990Z,1013.85
2022-12-27T01:22:16.981Z,1013.86
2022-12-27T01:23:16.977Z,1013.88
2022-12-27T01:24:16.976Z,1013.86
2022-12-27T01:25:16.972Z,1013.76
2022-12-27T01:26:16.959Z,1013.85
2022-12-27T01:27:16.927Z,1013.92
2022-12-27T01:28:16.939Z,1013.90
2022-12-27T01:29:16.912Z,1013.96
2022-12-27T01:30:16.909Z,1014.02
2022-12-27T01:31:16.964Z,1013.87
2022-12-27T01:32:16.874Z,1013.97
2022-12-27T01:33:16.865Z,1014.01
2022-12-27T01:34:16.853Z,1014.00
2022-12-27T01:35:16.844Z,1014.04
2022-12-27T01:36:16.862Z,1014.00
2022-12-27T01:37:16.821Z,1014.05
2022-12-27T01:38:16.843Z,1014.08
2022-12-27T01:39:16.798Z,1014.05
2022-12-27T01:40:16.795Z,1014.17
2022-12-27T01:41:16.774Z,1014.08
2022-12-27T01:42:16.778Z,1014.05
2022-12-27T01:43:16.757Z,1014.12
2022-12-27T01:44:16.753Z,1014.13
2022-12-27T01:45:16.729Z,1014.11
2022-12-27T01:46:16.756Z,1014.12
2022-12-27T01:47:16.711Z,1014.13
2022-12-27T01:48:16.701Z,1014.13
2022-12-27T01:49:16.702Z,1014.18
2022-12-27T01:50:16.683Z,1014.24
2022-12-27T01:51:16.667Z,1014.22
2022-12-27T01:52:16.673Z,1014.21
2022-12-27T01:53:16.651Z,1014.18
2022-12-27T01:54:16.645Z,1014.14
2022-12-27T01:55:16.625Z,1014.14
2022-12-27T01:56:16.614Z,1014.20
2022-12-27T01:57:16.595Z,1014.15
2022-12-27T01:58:16.598Z,1014.16
2022-12-27T01:59:16.588Z,1014.21
2022-12-27T02:00:16.598Z,1014.13
2022-12-27T02:01:16.770Z,1014.15
2022-12-27T02:02:16.808Z,1014.14
2022-12-27T02:03:16.679Z,1014.15
2022-12-27T02:04:16.533Z,1014.16
2022-12-27T02:05:16.522Z,1014.12
2022-12-27T02:06:16.521Z,1014.12
2022-12-27T02:07:16.489Z,1014.12
2022-12-27T02:08:16.500Z,1014.18
2022-12-27T02:09:16.472Z,1014.09
2022-12-27T02:10:16.464Z,1014.17
2022-12-27T02:11:16.448Z,1014.14
2022-12-27T02:12:16.446Z,1014.15
2022-12-27T02:13:16.422Z,1014.15
2022-12-27T02:14:16.440Z,1014.11
2022-12-27T02:15:16.403Z,1014.17
2022-12-27T02:16:16.437Z,1014.15
2022-12-27T02:17:16.383Z,1014.20
2022-12-27T02:18:16.382Z,1014.26
2022-12-27T02:19:16.360Z,1014.24
2022-12-27T02:20:16.360Z,1014.24
2022-12-27T02:21:16.343Z,1014.17
2022-12-27T02:22:16.337Z,1014.19
2022-12-27T02:23:16.322Z,1014.16
2022-12-27T02:24:16.330Z,1014.20
2022-12-27T02:25:16.309Z,1014.21
2022-12-27T02:26:16.296Z,1014.13
2022-12-27T02:27:16.273Z,1014.18
2022-12-27T02:28:16.273Z,1014.15
2022-12-27T02:29:16.249Z,1014.16
2022-12-27T02:30:16.245Z,1014.26
2022-12-27T02:31:16.277Z,1014.32
2022-12-27T02:32:16.223Z,1014.33
2022-12-27T02:33:16.219Z,1014.29
2022-12-27T02:34:16.195Z,1014.28
2022-12-27T02:35:16.194Z,1014.36
2022-12-27T02:36:16.172Z,1014.33
2022-12-27T02:37:16.177Z,1014.33
2022-12-27T02:38:16.157Z,1014.25
2022-12-27T02:39:16.153Z,1014.33
2022-12-27T02:40:16.150Z,1014.27
2022-12-27T02:41:16.117Z,1014.27
2022-12-27T02:42:16.110Z,1014.22
2022-12-27T02:43:16.110Z,1014.11
2022-12-27T02:44:16.112Z,1014.24
2022-12-27T02:45:16.088Z,1014.18
2022-12-27T02:46:21.401Z,1014.24
2022-12-27T02:47:17.055Z,1014.16
2022-12-27T02:48:16.051Z,1014.16
2022-12-27T02:49:16.046Z,1014.28
2022-12-27T02:50:23.123Z,1014.25
2022-12-27T02:51:16.013Z,1014.20
2022-12-27T02:52:16.022Z,1014.24
2022-12-27T02:53:16.003Z,1014.20
2022-12-27T02:54:15.983Z,1014.20
2022-12-27T02:55:15.971Z,1014.24
2022-12-27T02:56:15.986Z,1014.28
2022-12-27T02:57:15.954Z,1014.29
2022-12-27T02:58:15.959Z,1014.26
2022-12-27T02:59:15.947Z,1014.30
2022-12-27T03:00:15.924Z,1014.26
2022-12-27T03:01:15.980Z,1014.28
2022-12-27T03:02:16.100Z,1014.26
2022-12-27T03:03:15.936Z,1014.33
2022-12-27T03:04:15.871Z,1014.27
2022-12-27T03:05:15.892Z,1014.30
2022-12-27T03:06:15.872Z,1014.38
2022-12-27T03:07:15.863Z,1014.25
2022-12-27T03:08:15.857Z,1014.30
2022-12-27T03:09:15.813Z,1014.29
2022-12-27T03:10:15.814Z,1014.36
2022-12-27T03:11:15.804Z,1014.34
2022-12-27T03:12:15.812Z,1014.46
2022-12-27T03:13:15.785Z,1014.35
2022-12-27T03:14:15.788Z,1014.34
2022-12-27T03:15:15.765Z,1014.38
2022-12-27T03:16:15.795Z,1014.40
2022-12-27T03:17:15.749Z,1014.38
2022-12-27T03:18:15.728Z,1014.37
2022-12-27T03:19:15.704Z,1014.42
2022-12-27T03:20:15.700Z,1014.44
2022-12-27T03:21:15.694Z,1014.43
2022-12-27T03:22:15.675Z,1014.41
2022-12-27T03:23:15.700Z,1014.48
2022-12-27T03:24:15.652Z,1014.47
2022-12-27T03:25:15.645Z,1014.47
2022-12-27T03:26:15.636Z,1014.50
2022-12-27T03:27:15.622Z,1014.43
2022-12-27T03:28:15.742Z,1014.45
2022-12-27T03:29:15.614Z,1014.61
2022-12-27T03:30:15.600Z,1014.56
2022-12-27T03:31:15.670Z,1014.60
2022-12-27T03:32:15.569Z,1014.57
2022-12-27T03:33:15.572Z,1014.61
2022-12-27T03:34:15.544Z,1014.64
2022-12-27T03:35:15.541Z,1014.57
2022-12-27T03:36:15.545Z,1014.59
2022-12-27T03:37:15.506Z,1014.56
2022-12-27T03:38:15.520Z,1014.65
2022-12-27T03:39:15.492Z,1014.63
2022-12-27T03:40:15.503Z,1014.68
2022-12-27T03:41:15.467Z,1014.69
2022-12-27T03:42:15.480Z,1014.70
2022-12-27T03:43:15.441Z,1014.69
2022-12-27T03:44:15.473Z,1014.79
2022-12-27T03:45:15.429Z,1014.70
2022-12-27T03:46:15.502Z,1014.66
2022-12-27T03:47:15.429Z,1014.64
2022-12-27T03:48:15.395Z,1014.69
2022-12-27T03:49:15.409Z,1014.64
2022-12-27T03:50:15.381Z,1014.65
2022-12-27T03:51:15.400Z,1014.64
2022-12-27T03:52:15.349Z,1014.60
2022-12-27T03:53:15.336Z,1014.60
2022-12-27T03:54:15.333Z,1014.61
2022-12-27T03:55:15.334Z,1014.62
2022-12-27T03:56:15.303Z,1014.65
2022-12-27T03:57:15.291Z,1014.69
2022-12-27T03:58:15.283Z,1014.72
2022-12-27T03:59:15.285Z,1014.68
2022-12-27T04:00:15.296Z,1014.68
2022-12-27T04:01:15.405Z,1014.67
2022-12-27T04:02:15.439Z,1014.70
2022-12-27T04:03:15.241Z,1014.75
2022-12-27T04:04:15.223Z,1014.71
2022-12-27T04:05:15.229Z,1014.69
2022-12-27T04:06:15.196Z,1014.80
2022-12-27T04:07:15.192Z,1014.72
2022-12-27T04:08:15.182Z,1014.71
2022-12-27T04:09:15.158Z,1014.74
2022-12-27T04:10:15.183Z,1014.69
2022-12-27T04:11:15.144Z,1014.71
2022-12-27T04:12:15.133Z,1014.74
2022-12-27T04:13:15.128Z,1014.75
2022-12-27T04:14:15.119Z,1014.77
2022-12-27T04:15:15.098Z,1014.76
2022-12-27T04:16:15.300Z,1014.78
2022-12-27T04:17:15.087Z,1014.78
2022-12-27T04:18:15.076Z,1014.80
2022-12-27T04:19:15.070Z,1014.77
2022-12-27T04:20:15.093Z,1014.81
2022-12-27T04:21:15.031Z,1014.84
2022-12-27T04:22:15.021Z,1014.85
2022-12-27T04:23:15.030Z,1014.88
2022-12-27T04:24:15.005Z,1014.83
2022-12-27T04:25:14.997Z,1014.81
2022-12-27T04:26:14.983Z,1014.85
2022-12-27T04:27:14.974Z,1014.86
2022-12-27T04:28:14.978Z,1014.87
2022-12-27T04:29:14.966Z,1014.85
2022-12-27T04:30:14.949Z,1014.93
2022-12-27T04:31:15.042Z,1014.91
2022-12-27T04:32:14.940Z,1014.82
2022-12-27T04:33:14.912Z,1014.74
2022-12-27T04:34:14.899Z,1014.88
2022-12-27T04:35:14.898Z,1014.85
2022-12-27T04:36:14.877Z,1014.72
2022-12-27T04:37:14.866Z,1014.78
2022-12-27T04:38:14.852Z,1014.86
2022-12-27T04:39:14.867Z,1014.87
2022-12-27T04:40:14.824Z,1014.84
2022-12-27T04:41:14.848Z,1014.92
2022-12-27T04:42:14.832Z,1014.84
2022-12-27T04:43:14.801Z,1014.86
2022-12-27T04:44:14.781Z,1014.85
2022-12-27T04:45:15.538Z,1014.88
2022-12-27T04:46:14.782Z,1014.88
2022-12-27T04:47:14.768Z,1014.87
2022-12-27T04:48:14.768Z,1014.89
2022-12-27T04:49:14.733Z,1014.90
2022-12-27T04:50:14.718Z,1014.94
2022-12-27T04:51:14.707Z,1014.88
2022-12-27T04:52:14.720Z,1014.83
2022-12-27T04:53:14.698Z,1014.88
2022-12-27T04:54:14.683Z,1014.92
2022-12-27T04:55:14.662Z,1014.92
2022-12-27T04:56:14.667Z,1014.98
2022-12-27T04:57:14.666Z,1014.95
2022-12-27T04:58:14.631Z,1014.97
2022-12-27T04:59:14.633Z,1015.01
2022-12-27T05:00:14.617Z,1014.97
2022-12-27T05:01:14.654Z,1015.03
2022-12-27T05:02:14.724Z,1015.08
2022-12-27T05:03:14.703Z,1015.05
2022-12-27T05:04:14.593Z,1015.08
2022-12-27T05:05:14.578Z,1015.15
2022-12-27T05:06:14.563Z,1015.12
2022-12-27T05:07:14.541Z,1015.12
2022-12-27T05:08:14.533Z,1015.08
2022-12-27T05:09:18.620Z,1015.14
2022-12-27T05:10:15.528Z,1015.10
2022-12-27T05:11:14.515Z,1015.13
2022-12-27T05:12:14.480Z,1015.14
2022-12-27T05:13:14.483Z,1015.15
2022-12-27T05:14:14.464Z,1015.16
2022-12-27T05:15:14.441Z,1015.20
2022-12-27T05:16:14.593Z,1015.22
2022-12-27T05:17:14.450Z,1015.13
2022-12-27T05:18:14.470Z,1015.12
2022-12-27T05:19:14.404Z,1015.28
2022-12-27T05:20:14.504Z,1015.29
2022-12-27T05:21:14.376Z,1015.17
2022-12-27T05:22:14.370Z,1015.16
2022-12-27T05:23:14.374Z,1015.23
2022-12-27T05:24:14.367Z,1015.26
2022-12-27T05:25:14.341Z,1015.26
2022-12-27T05:26:14.337Z,1015.24
2022-12-27T05:27:14.321Z,1015.20
2022-12-27T05:28:14.332Z,1015.26
2022-12-27T05:29:14.305Z,1015.23
2022-12-27T05:30:14.281Z,1015.30
2022-12-27T05:31:14.333Z,1015.32
2022-12-27T05:32:14.266Z,1015.33
2022-12-27T05:33:14.261Z,1015.26
2022-12-27T05:34:14.251Z,1015.29
2022-12-27T05:35:14.226Z,1015.29
2022-12-27T05:36:14.247Z,1015.37
2022-12-27T05:37:14.209Z,1015.34
2022-12-27T05:38:14.224Z,1015.29
2022-12-27T05:39:14.226Z,1015.38
2022-12-27T05:40:14.173Z,1015.37
2022-12-27T05:41:14.191Z,1015.36
2022-12-27T05:42:14.173Z,1015.37
2022-12-27T05:43:14.145Z,1015.41
2022-12-27T05:44:14.155Z,1015.40
2022-12-27T05:45:14.139Z,1015.43
2022-12-27T05:46:14.266Z,1015.50
2022-12-27T05:47:14.105Z,1015.49
2022-12-27T05:48:14.107Z,1015.55
2022-12-27T05:49:14.125Z,1015.49
2022-12-27T05:50:14.115Z,1015.56
2022-12-27T05:51:14.059Z,1015.51
2022-12-27T05:52:14.071Z,1015.54
2022-12-27T05:53:14.063Z,1015.54
2022-12-27T05:54:14.050Z,1015.55
2022-12-27T05:55:14.029Z,1015.56
2022-12-27T05:56:14.004Z,1015.58
2022-12-27T05:57:14.007Z,1015.57
2022-12-27T05:58:13.991Z,1015.56
2022-12-27T05:59:13.968Z,1015.64
2022-12-27T06:00:13.978Z,1015.50
2022-12-27T06:01:13.983Z,1015.61
2022-12-27T06:02:14.120Z,1015.60
2022-12-27T06:03:14.022Z,1015.62
2022-12-27T06:04:13.910Z,1015.53
2022-12-27T06:05:13.932Z,1015.53
2022-12-27T06:06:13.908Z,1015.48
2022-12-27T06:07:13.895Z,1015.54
2022-12-27T06:08:13.894Z,1015.56
2022-12-27T06:09:13.867Z,1015.59
2022-12-27T06:10:13.877Z,1015.64
2022-12-27T06:11:13.866Z,1015.62
2022-12-27T06:12:13.835Z,1015.65
2022-12-27T06:13:13.820Z,1015.65
2022-12-27T06:14:13.811Z,1015.68
2022-12-27T06:15:13.835Z,1015.72
2022-12-27T06:16:13.816Z,1015.75
2022-12-27T06:17:13.785Z,1015.79
2022-12-27T06:18:13.791Z,1015.71
2022-12-27T06:19:13.758Z,1015.80
2022-12-27T06:20:13.758Z,1015.79
2022-12-27T06:21:13.750Z,1015.79
2022-12-27T06:22:13.729Z,1015.85
2022-12-27T06:23:13.728Z,1015.84
2022-12-27T06:24:13.721Z,1015.82
2022-12-27T06:25:14.442Z,1015.88
2022-12-27T06:26:13.682Z,1015.87
2022-12-27T06:27:13.677Z,1015.91
2022-12-27T06:28:13.658Z,1015.87
2022-12-27T06:29:13.700Z,1015.87
2022-12-27T06:30:13.628Z,1015.91
2022-12-27T06:31:13.699Z,1015.98
2022-12-27T06:32:13.659Z,1015.92
2022-12-27T06:33:13.612Z,1015.91
2022-12-27T06:34:13.592Z,1015.94
2022-12-27T06:35:13.594Z,1015.97
2022-12-27T06:36:13.570Z,1015.98
2022-12-27T06:37:13.571Z,1016.02
2022-12-27T06:38:13.554Z,1016.08
2022-12-27T06:39:13.535Z,1016.09
2022-12-27T06:40:13.603Z,1016.09
2022-12-27T06:41:13.536Z,1016.11
2022-12-27T06:42:13.534Z,1016.13
2022-12-27T06:43:13.492Z,1016.14
2022-12-27T06:44:13.512Z,1016.16
2022-12-27T06:45:13.479Z,1016.15
2022-12-27T06:46:17.354Z,1016.17
2022-12-27T06:47:13.492Z,1016.14
2022-12-27T06:48:13.440Z,1016.16
2022-12-27T06:49:13.430Z,1016.17
2022-12-27T06:50:13.411Z,1016.17
2022-12-27T06:51:13.426Z,1016.22
2022-12-27T06:52:13.407Z,1016.17
2022-12-27T06:53:13.405Z,1016.14
2022-12-27T06:54:13.386Z,1016.22
2022-12-27T06:55:13.362Z,1016.14
2022-12-27T06:56:13.392Z,1016.16
2022-12-27T06:57:13.345Z,1016.19
2022-12-27T06:58:13.344Z,1016.11
2022-12-27T06:59:13.318Z,1016.13
2022-12-27T07:00:13.376Z,1016.19
2022-12-27T07:01:13.512Z,1016.24
2022-12-27T07:02:13.456Z,1016.21
2022-12-27T07:03:13.368Z,1016.23
2022-12-27T07:04:13.266Z,1016.24
2022-12-27T07:05:13.260Z,1016.22
2022-12-27T07:06:13.258Z,1016.26
2022-12-27T07:07:15.786Z,1016.29
2022-12-27T07:08:13.235Z,1016.33
2022-12-27T07:09:13.233Z,1016.26
2022-12-27T07:10:13.197Z,1016.31
2022-12-27T07:11:13.192Z,1016.30
2022-12-27T07:12:13.229Z,1016.32
2022-12-27T07:13:13.173Z,1016.35
2022-12-27T07:14:13.168Z,1016.34
2022-12-27T07:15:13.159Z,1016.40
2022-12-27T07:16:13.174Z,1016.36
2022-12-27T07:17:13.153Z,1016.36
2022-12-27T07:18:13.122Z,1016.36
2022-12-27T07:19:13.108Z,1016.33
2022-12-27T07:20:13.103Z,1016.35
2022-12-27T07:21:13.103Z,1016.35
2022-12-27T07:22:13.074Z,1016.41
2022-12-27T07:23:19.002Z,1016.38
2022-12-27T07:24:14.061Z,1016.39
2022-12-27T07:25:13.037Z,1016.38
2022-12-27T07:26:13.064Z,1016.40
2022-12-27T07:27:13.027Z,1016.43
2022-12-27T07:28:13.083Z,1016.41
2022-12-27T07:29:13.016Z,1016.43
2022-12-27T07:30:12.987Z,1016.40
2022-12-27T07:31:12.988Z,1016.44
2022-12-27T07:32:12.992Z,1016.51
2022-12-27T07:33:12.954Z,1016.47
2022-12-27T07:34:12.952Z,1016.57
2022-12-27T07:35:12.935Z,1016.58
2022-12-27T07:36:12.911Z,1016.55
2022-12-27T07:37:12.946Z,1016.55
2022-12-27T07:38:12.893Z,1016.60
2022-12-27T07:39:12.886Z,1016.60
2022-12-27T07:40:12.897Z,1016.63
2022-12-27T07:41:12.870Z,1016.66
2022-12-27T07:42:12.869Z,1016.73
2022-12-27T07:43:12.852Z,1016.71
2022-12-27T07:44:12.958Z,1016.64
2022-12-27T07:45:12.820Z,1016.70
2022-12-27T07:46:12.855Z,1016.75
2022-12-27T07:47:12.807Z,1016.71
2022-12-27T07:48:12.786Z,1016.76
2022-12-27T07:49:17.631Z,1016.75
2022-12-27T07:50:13.769Z,1016.76
2022-12-27T07:51:12.766Z,1016.80
2022-12-27T07:52:12.776Z,1016.76
2022-12-27T07:53:12.738Z,1016.81
2022-12-27T07:54:12.744Z,1016.82
2022-12-27T07:55:12.715Z,1016.83
2022-12-27T07:56:12.693Z,1016.82
2022-12-27T07:57:12.692Z,1016.78
2022-12-27T07:58:12.692Z,1016.82
2022-12-27T07:59:12.694Z,1016.81
2022-12-27T08:00:12.672Z,1016.90
2022-12-27T08:01:12.807Z,1016.89
2022-12-27T08:02:12.738Z,1016.88
2022-12-27T08:03:12.685Z,1016.92
2022-12-27T08:04:12.612Z,1016.86
2022-12-27T08:05:12.625Z,1016.98
2022-12-27T08:06:12.612Z,1016.95
2022-12-27T08:07:12.576Z,1016.95
2022-12-27T08:08:12.606Z,1016.96
2022-12-27T08:09:12.584Z,1016.94
2022-12-27T08:10:12.580Z,1016.95
2022-12-27T08:11:12.539Z,1017.01
2022-12-27T08:12:12.528Z,1017.01
2022-12-27T08:13:12.536Z,1017.06
2022-12-27T08:14:12.503Z,1017.04
2022-12-27T08:15:12.506Z,1017.05
2022-12-27T08:16:12.515Z,1017.04
2022-12-27T08:17:12.485Z,1017.10
2022-12-27T08:18:12.475Z,1017.08
2022-12-27T08:19:12.514Z,1017.01
2022-12-27T08:20:12.462Z,1017.05
2022-12-27T08:21:12.438Z,1017.11
2022-12-27T08:22:12.436Z,1017.00
2022-12-27T08:23:12.409Z,1017.06
2022-12-27T08:24:12.440Z,1017.06
2022-12-27T08:25:12.405Z,1017.03
2022-12-27T08:26:12.383Z,1017.05
2022-12-27T08:27:12.382Z,1017.10
2022-12-27T08:28:12.372Z,1017.09
2022-12-27T08:29:12.348Z,1017.12
2022-12-27T08:30:12.353Z,1017.14
2022-12-27T08:31:12.363Z,1017.20
2022-12-27T08:32:12.332Z,1017.27
2022-12-27T08:33:12.297Z,1017.27
2022-12-27T08:34:12.295Z,1017.31
2022-12-27T08:35:50.421Z,1017.28
2022-12-27T08:36:45.102Z,1017.38
2022-12-27T08:37:13.294Z,1017.37
2022-12-27T08:38:12.267Z,1017.32
2022-12-27T08:39:12.232Z,1017.42
2022-12-27T08:40:12.216Z,1017.25
2022-12-27T08:41:12.236Z,1017.34
2022-12-27T08:42:12.213Z,1017.46
2022-12-27T08:43:12.231Z,1017.44
2022-12-27T08:44:12.175Z,1017.33
2022-12-27T08:45:12.164Z,1017.27
2022-12-27T08:46:12.246Z,1017.26
2022-12-27T08:47:12.155Z,1017.52
2022-12-27T08:48:12.281Z,1017.50
2022-12-27T08:49:12.134Z,1017.33
2022-12-27T08:50:12.108Z,1017.49
2022-12-27T08:51:31.667Z,1017.57
2022-12-27T08:52:13.101Z,1017.49
2022-12-27T08:53:12.099Z,1017.55
2022-12-27T08:54:12.101Z,1017.59
2022-12-27T08:55:12.066Z,1017.58
2022-12-27T08:56:12.044Z,1017.50
2022-12-27T08:57:12.034Z,1017.58
2022-12-27T08:58:16.020Z,1017.20
2022-12-27T08:59:12.046Z,1017.24
2022-12-27T09:00:11.993Z,1017.46
2022-12-27T09:01:12.120Z,1017.56
2022-12-27T09:02:12.150Z,1017.57
2022-12-27T09:03:12.045Z,1017.33
2022-12-27T09:04:12.013Z,1017.61
2022-12-27T09:05:11.944Z,1017.55
2022-12-27T09:06:11.950Z,1017.60
2022-12-27T09:07:11.929Z,1017.46
2022-12-27T09:08:11.923Z,1017.64
2022-12-27T09:09:11.919Z,1017.63
2022-12-27T09:10:11.918Z,1017.60
2022-12-27T09:11:11.901Z,1017.20
2022-12-27T09:12:11.886Z,1017.43
2022-12-27T09:13:11.854Z,1017.59
2022-12-27T09:14:11.854Z,1017.64
2022-12-27T09:15:11.829Z,1017.65
2022-12-27T09:16:11.962Z,1017.67
2022-12-27T09:17:11.822Z,1017.40
2022-12-27T09:18:11.813Z,1017.70
2022-12-27T09:19:11.798Z,1017.60
2022-12-27T09:20:11.822Z,1017.73
2022-12-27T09:21:11.803Z,1017.73
2022-12-27T09:22:11.776Z,1017.66
2022-12-27T09:23:11.756Z,1017.66
2022-12-27T09:24:11.770Z,1017.73
2022-12-27T09:25:11.806Z,1017.38
2022-12-27T09:26:11.707Z,1017.73
2022-12-27T09:27:11.707Z,1017.73
2022-12-27T09:28:11.708Z,1017.27
2022-12-27T09:29:11.717Z,1017.33
2022-12-27T09:30:11.678Z,1017.68
2022-12-27T09:31:11.761Z,1017.72
2022-12-27T09:32:11.662Z,1017.69
2022-12-27T09:33:11.672Z,1017.67
2022-12-27T09:34:11.635Z,1017.55
2022-12-27T09:35:11.645Z,1017.74
2022-12-27T09:36:11.638Z,1017.75
2022-12-27T09:37:11.599Z,1017.67
2022-12-27T09:38:11.589Z,1017.64
2022-12-27T09:39:11.585Z,1017.41
2022-12-27T09:40:11.567Z,1017.35
2022-12-27T09:41:11.539Z,1017.50
2022-12-27T09:42:46.572Z,1017.58
2022-12-27T09:43:22.210Z,1017.44
2022-12-27T09:44:12.582Z,1017.47
2022-12-27T09:45:11.530Z,1017.47
2022-12-27T09:46:11.530Z,1017.51
2022-12-27T09:47:11.479Z,1017.47
2022-12-27T09:48:11.479Z,1017.50
2022-12-27T09:49:11.472Z,1017.45
2022-12-27T09:50:11.451Z,1017.48
2022-12-27T09:51:11.426Z,1017.55
2022-12-27T09:52:11.445Z,1017.53
2022-12-27T09:53:11.412Z,1017.56
2022-12-27T09:54:11.459Z,1017.55
2022-12-27T09:55:11.380Z,1017.58
2022-12-27T09:56:11.374Z,1017.58
2022-12-27T09:57:19.949Z,1017.57
2022-12-27T09:58:12.381Z,1017.60
2022-12-27T09:59:11.340Z,1017.52
2022-12-27T10:00:11.359Z,1017.52
2022-12-27T10:01:11.444Z,1017.53
2022-12-27T10:02:11.434Z,1017.53
2022-12-27T10:03:11.296Z,1017.53
2022-12-27T10:04:11.407Z,1017.48
2022-12-27T10:05:20.367Z,1017.55
2022-12-27T10:06:12.319Z,1017.53
2022-12-27T10:07:11.260Z,1017.55
2022-12-27T10:08:11.371Z,1017.56
2022-12-27T10:09:11.250Z,1017.60
2022-12-27T10:10:11.227Z,1017.63
2022-12-27T10:11:11.209Z,1017.63
2022-12-27T10:12:11.217Z,1017.65
2022-12-27T10:13:11.210Z,1017.64
2022-12-27T10:14:11.172Z,1017.66
2022-12-27T10:15:11.166Z,1017.69
2022-12-27T10:16:11.256Z,1017.65
2022-12-27T10:17:11.153Z,1017.67
2022-12-27T10:18:11.137Z,1017.71
2022-12-27T10:19:11.119Z,1017.67
2022-12-27T10:20:11.118Z,1017.72
2022-12-27T10:21:11.133Z,1017.68
2022-12-27T10:22:11.082Z,1017.72
2022-12-27T10:23:11.077Z,1017.72
2022-12-27T10:24:11.098Z,1017.70
2022-12-27T10:25:11.065Z,1017.63
2022-12-27T10:26:11.063Z,1017.64
2022-12-27T10:27:11.054Z,1017.67
2022-12-27T10:28:11.025Z,1017.71
2022-12-27T10:29:11.004Z,1017.70
2022-12-27T10:30:11.004Z,1017.66
2022-12-27T10:31:11.065Z,1017.52
2022-12-27T10:32:10.982Z,1017.55
2022-12-27T10:33:10.991Z,1017.52
2022-12-27T10:34:11.093Z,1017.57
2022-12-27T10:35:10.952Z,1017.61
2022-12-27T10:36:10.933Z,1017.57
2022-12-27T10:37:10.945Z,1017.51
2022-12-27T10:38:10.929Z,1017.62
2022-12-27T10:39:10.900Z,1017.58
2022-12-27T10:40:10.916Z,1017.64
2022-12-27T10:41:10.880Z,1017.56
2022-12-27T10:42:10.870Z,1017.51
2022-12-27T10:43:10.851Z,1017.60
2022-12-27T10:44:10.848Z,1017.53
2022-12-27T10:45:10.828Z,1017.63
2022-12-27T10:46:10.865Z,1017.62
2022-12-27T10:47:10.880Z,1017.60
2022-12-27T10:48:10.797Z,1017.60
2022-12-27T10:49:26.282Z,1017.63
2022-12-27T10:50:11.804Z,1017.68
2022-12-27T10:51:10.792Z,1017.68
2022-12-27T10:52:10.820Z,1017.65
2022-12-27T10:53:10.768Z,1017.67
2022-12-27T10:54:10.775Z,1017.70
2022-12-27T10:55:10.726Z,1017.69
2022-12-27T10:56:10.760Z,1017.70
2022-12-27T10:57:10.744Z,1017.70
2022-12-27T10:58:10.700Z,1017.70
2022-12-27T10:59:10.693Z,1017.69
2022-12-27T11:00:10.690Z,1017.69
2022-12-27T11:01:10.724Z,1017.77
2022-12-27T11:02:10.734Z,1017.76
2022-12-27T11:03:10.649Z,1017.78
2022-12-27T11:04:14.467Z,1017.75
2022-12-27T11:05:11.649Z,1017.72
2022-12-27T11:06:10.627Z,1017.74
2022-12-27T11:07:10.605Z,1017.74
2022-12-27T11:08:10.595Z,1017.82
2022-12-27T11:09:10.570Z,1017.83
2022-12-27T11:10:10.565Z,1017.77
2022-12-27T11:11:10.555Z,1017.80
2022-12-27T11:12:10.568Z,1017.78
2022-12-27T11:13:10.526Z,1017.80
2022-12-27T11:14:10.521Z,1017.78
2022-12-27T11:15:10.529Z,1017.79
2022-12-27T11:16:10.525Z,1017.87
2022-12-27T11:17:10.482Z,1017.87
2022-12-27T11:18:10.480Z,1017.80
2022-12-27T11:19:10.460Z,1017.84
2022-12-27T11:20:10.469Z,1017.84
2022-12-27T11:21:17.691Z,1017.94
2022-12-27T11:22:11.427Z,1017.93
2022-12-27T11:23:10.439Z,1017.98
2022-12-27T11:24:10.420Z,1017.98
2022-12-27T11:25:10.401Z,1017.92
2022-12-27T11:26:10.388Z,1017.94
2022-12-27T11:27:10.383Z,1017.95
2022-12-27T11:28:10.422Z,1017.94
2022-12-27T11:29:10.349Z,1017.94
2022-12-27T11:30:10.362Z,1017.94
2022-12-27T11:31:10.440Z,1017.91
2022-12-27T11:32:10.320Z,1017.94
2022-12-27T11:33:10.312Z,1017.99
2022-12-27T11:34:10.308Z,1017.99
2022-12-27T11:35:10.306Z,1018.03
2022-12-27T11:36:10.292Z,1018.00
2022-12-27T11:37:10.260Z,1017.97
2022-12-27T11:38:10.264Z,1017.92
2022-12-27T11:39:10.237Z,1017.97
2022-12-27T11:40:10.262Z,1017.95
2022-12-27T11:41:10.214Z,1017.96
2022-12-27T11:42:10.206Z,1017.98
2022-12-27T11:43:10.198Z,1017.93
2022-12-27T11:44:10.221Z,1017.98
2022-12-27T11:45:10.191Z,1017.96
2022-12-27T11:46:10.176Z,1017.92
2022-12-27T11:47:10.281Z,1017.91
2022-12-27T11:48:10.153Z,1017.92
2022-12-27T11:49:10.167Z,1017.95
2022-12-27T11:50:10.154Z,1017.95
2022-12-27T11:51:10.122Z,1017.92
2022-12-27T11:52:10.118Z,1017.90
2022-12-27T11:53:10.105Z,1017.87
2022-12-27T11:54:10.091Z,1017.84
2022-12-27T11:55:10.121Z,1017.83
2022-12-27T11:56:10.065Z,1017.79
2022-12-27T11:57:10.053Z,1017.88
2022-12-27T11:58:10.043Z,1017.83
2022-12-27T11:59:10.025Z,1017.84
2022-12-27T12:00:10.040Z,1017.91
2022-12-27T12:01:10.010Z,1017.87
2022-12-27T12:02:10.068Z,1017.86
2022-12-27T12:03:10.046Z,1017.86
2022-12-27T12:04:09.983Z,1017.89
2022-12-27T12:05:09.958Z,1017.88